createdAt,value
2018-02-18T00:00:10.006Z,15.75
2018-02-18T00:00:44.458Z,22.52
2018-02-18T00:01:18.144Z,19.00
2018-02-18T00:01:51.815Z,17.08
2018-02-18T00:02:25.802Z,14.85
2018-02-18T00:02:59.472Z,15.13
2018-02-18T00:03:33.908Z,17.25
2018-02-18T00:04:07.593Z,15.40
2018-02-18T00:04:41.253Z,21.87
2018-02-18T00:05:14.939Z,20.15
2018-02-18T00:05:48.616Z,14.90
2018-02-18T00:06:22.287Z,17.83
2018-02-18T00:06:55.986Z,19.83
2018-02-18T00:07:29.707Z,22.23
2018-02-18T00:08:03.552Z,15.30
2018-02-18T00:08:37.231Z,18.02
2018-02-18T00:09:10.915Z,20.50
2018-02-18T00:09:44.636Z,14.25
2018-02-18T00:10:19.226Z,15.75
2018-02-18T00:10:52.896Z,21.05
2018-02-18T00:11:26.582Z,19.37
2018-02-18T00:12:00.066Z,16.00
2018-02-18T00:12:33.606Z,16.70
2018-02-18T00:13:07.100Z,16.35
2018-02-18T00:13:42.096Z,15.95
2018-02-18T00:14:17.036Z,23.73
2018-02-18T00:14:55.111Z,17.40
2018-02-18T00:15:28.609Z,15.88
2018-02-18T00:16:02.107Z,23.30
2018-02-18T00:16:35.598Z,20.23
2018-02-18T00:17:09.319Z,18.98
2018-02-18T00:17:43.044Z,17.70
2018-02-18T00:18:16.729Z,20.80
2018-02-18T00:18:50.418Z,20.42
2018-02-18T00:19:24.095Z,19.58
2018-02-18T00:19:57.759Z,17.73
2018-02-18T00:20:32.203Z,14.40
2018-02-18T00:21:05.877Z,20.33
2018-02-18T00:21:39.553Z,18.52
2018-02-18T00:22:16.931Z,17.83
2018-02-18T00:22:50.652Z,18.60
2018-02-18T00:23:24.339Z,18.25
2018-02-18T00:23:58.029Z,17.45
2018-02-18T00:24:31.711Z,14.90
2018-02-18T00:25:05.382Z,23.33
2018-02-18T00:25:39.058Z,16.48
2018-02-18T00:26:13.502Z,14.95
2018-02-18T00:26:47.197Z,21.42
2018-02-18T00:27:21.076Z,19.02
2018-02-18T00:27:54.791Z,17.98
2018-02-18T00:28:28.471Z,13.70
2018-02-18T00:29:02.166Z,18.40
2018-02-18T00:29:35.851Z,17.30
2018-02-18T00:30:09.537Z,14.48
2018-02-18T00:30:43.240Z,22.48
2018-02-18T00:31:16.930Z,14.23
2018-02-18T00:31:50.617Z,16.73
2018-02-18T00:32:24.296Z,18.05
2018-02-18T00:32:58.010Z,17.73
2018-02-18T00:33:31.677Z,17.92
2018-02-18T00:34:04.699Z,16.92
2018-02-18T00:34:39.157Z,16.80
2018-02-18T00:35:12.870Z,15.10
2018-02-18T00:35:46.548Z,20.17
2018-02-18T00:36:20.250Z,15.98
2018-02-18T00:36:53.753Z,17.17
2018-02-18T00:37:27.619Z,22.92
2018-02-18T00:38:01.672Z,19.60
2018-02-18T00:38:35.380Z,18.92
2018-02-18T00:39:09.066Z,18.52
2018-02-18T00:39:42.579Z,19.20
2018-02-18T00:40:16.081Z,16.45
2018-02-18T00:40:49.588Z,15.15
2018-02-18T00:41:23.282Z,16.02
2018-02-18T00:41:56.964Z,26.17
2018-02-18T00:42:30.639Z,20.25
2018-02-18T00:43:04.346Z,23.52
2018-02-18T00:43:37.689Z,18.25
2018-02-18T00:44:11.400Z,18.85
2018-02-18T00:44:45.074Z,17.17
2018-02-18T00:45:18.751Z,20.23
2018-02-18T00:45:52.444Z,19.77
2018-02-18T00:46:26.124Z,19.17
2018-02-18T00:46:59.637Z,19.70
2018-02-18T00:47:33.143Z,17.12
2018-02-18T00:48:06.859Z,22.50
2018-02-18T00:48:41.298Z,19.73
2018-02-18T00:49:14.974Z,22.13
2018-02-18T00:49:48.466Z,18.27
2018-02-18T00:50:21.951Z,18.90
2018-02-18T00:50:55.635Z,16.65
2018-02-18T00:51:29.315Z,21.00
2018-02-18T00:52:03.006Z,19.10
2018-02-18T00:52:36.502Z,21.73
2018-02-18T00:53:10.269Z,16.83
2018-02-18T00:53:44.708Z,18.55
2018-02-18T00:54:18.394Z,20.85
2018-02-18T00:54:52.099Z,22.65
2018-02-18T00:55:25.779Z,20.20
2018-02-18T00:55:59.447Z,21.45
2018-02-18T00:56:33.140Z,18.75
2018-02-18T00:57:06.811Z,18.37
2018-02-18T00:57:41.255Z,19.02
2018-02-18T00:58:14.967Z,20.88
2018-02-18T00:58:48.662Z,25.33
2018-02-18T00:59:22.353Z,23.92
2018-02-18T00:59:56.042Z,19.95
2018-02-18T01:00:29.395Z,20.77
2018-02-18T01:01:02.904Z,20.90
2018-02-18T01:01:36.574Z,31.23
2018-02-18T01:02:10.246Z,21.90
2018-02-18T01:02:43.917Z,20.17
2018-02-18T01:03:18.392Z,22.55
2018-02-18T01:03:52.097Z,19.90
2018-02-18T01:04:26.063Z,22.83
2018-02-18T01:04:59.737Z,25.12
2018-02-18T01:05:33.411Z,26.95
2018-02-18T01:06:07.091Z,27.23
2018-02-18T01:06:41.543Z,29.02
2018-02-18T01:07:15.222Z,20.45
2018-02-18T01:07:48.930Z,25.02
2018-02-18T01:08:22.630Z,22.25
2018-02-18T01:08:56.304Z,24.00
2018-02-18T01:09:29.983Z,20.95
2018-02-18T01:10:03.325Z,33.38
2018-02-18T01:10:37.759Z,24.77
2018-02-18T01:11:11.437Z,20.12
2018-02-18T01:11:45.121Z,26.27
2018-02-18T01:12:18.817Z,21.27
2018-02-18T01:12:52.509Z,23.70
2018-02-18T01:13:26.219Z,28.33
2018-02-18T01:13:59.902Z,21.90
2018-02-18T01:14:33.578Z,27.30
2018-02-18T01:15:07.250Z,26.73
2018-02-18T01:15:41.689Z,24.75
2018-02-18T01:16:15.375Z,21.80
2018-02-18T01:16:49.048Z,25.12
2018-02-18T01:17:23.482Z,25.42
2018-02-18T01:17:57.148Z,26.42
2018-02-18T01:18:30.862Z,20.00
2018-02-18T01:19:04.538Z,25.33
2018-02-18T01:19:38.217Z,24.08
2018-02-18T01:20:11.889Z,27.55
2018-02-18T01:20:46.334Z,22.10
2018-02-18T01:21:20.014Z,22.45
2018-02-18T01:21:53.715Z,26.87
2018-02-18T01:22:27.385Z,24.55
2018-02-18T01:23:01.059Z,22.55
2018-02-18T01:23:35.533Z,22.35
2018-02-18T01:24:09.203Z,25.05
2018-02-18T01:24:42.882Z,24.77
2018-02-18T01:25:16.546Z,30.17
2018-02-18T01:25:49.884Z,23.83
2018-02-18T01:26:23.554Z,24.25
2018-02-18T01:26:57.243Z,25.80
2018-02-18T01:27:30.911Z,23.40
2018-02-18T01:28:04.595Z,24.55
2018-02-18T01:28:38.300Z,22.98
2018-02-18T01:29:11.977Z,33.63
2018-02-18T01:29:45.663Z,22.13
2018-02-18T01:30:18.995Z,24.55
2018-02-18T01:30:52.662Z,25.55
2018-02-18T01:31:26.348Z,26.25
2018-02-18T01:32:00.038Z,27.65
2018-02-18T01:32:33.719Z,24.83
2018-02-18T01:33:07.408Z,27.02
2018-02-18T01:33:41.107Z,33.97
2018-02-18T01:34:14.790Z,29.05
2018-02-18T01:34:48.474Z,26.52
2018-02-18T01:35:22.144Z,25.02
2018-02-18T01:35:55.830Z,22.48
2018-02-18T01:36:29.509Z,24.60
2018-02-18T01:37:03.950Z,28.48
2018-02-18T01:37:37.835Z,32.67
2018-02-18T01:38:11.519Z,24.30
2018-02-18T01:38:45.237Z,28.02
2018-02-18T01:39:18.899Z,29.23
2018-02-18T01:39:52.585Z,23.95
2018-02-18T01:40:27.011Z,25.23
2018-02-18T01:41:00.682Z,28.23
2018-02-18T01:41:34.362Z,28.38
2018-02-18T01:42:08.799Z,26.87
2018-02-18T01:42:42.486Z,21.23
2018-02-18T01:43:16.193Z,35.17
2018-02-18T01:43:49.895Z,25.33
2018-02-18T01:44:23.598Z,28.10
2018-02-18T01:44:57.286Z,23.62
2018-02-18T01:45:30.974Z,21.87
2018-02-18T01:46:04.641Z,24.75
2018-02-18T01:46:38.375Z,23.70
2018-02-18T01:47:12.826Z,22.23
2018-02-18T01:47:46.494Z,29.05
2018-02-18T01:48:20.166Z,21.60
2018-02-18T01:48:54.644Z,26.15
2018-02-18T01:49:28.326Z,27.17
2018-02-18T01:50:01.340Z,28.17
2018-02-18T01:50:37.788Z,25.52
2018-02-18T01:51:11.561Z,23.70
2018-02-18T01:51:46.788Z,29.27
2018-02-18T01:52:21.243Z,20.88
2018-02-18T01:52:54.904Z,24.90
2018-02-18T01:53:28.577Z,24.67
2018-02-18T01:54:02.279Z,22.77
2018-02-18T01:54:35.941Z,25.33
2018-02-18T01:55:09.626Z,19.90
2018-02-18T01:55:43.318Z,26.52
2018-02-18T01:56:16.980Z,26.20
2018-02-18T01:56:50.668Z,22.48
2018-02-18T01:57:24.424Z,25.83
2018-02-18T01:57:58.865Z,22.90
2018-02-18T01:58:32.520Z,25.92
2018-02-18T01:59:06.217Z,26.77
2018-02-18T01:59:40.650Z,22.65
2018-02-18T02:00:14.340Z,19.90
2018-02-18T02:00:48.015Z,23.73
2018-02-18T02:01:21.705Z,23.08
2018-02-18T02:01:56.126Z,23.75
2018-02-18T02:02:29.797Z,25.08
2018-02-18T02:03:03.467Z,22.55
2018-02-18T02:03:37.586Z,21.48
2018-02-18T02:04:12.043Z,27.65
2018-02-18T02:04:45.731Z,22.77
2018-02-18T02:05:19.473Z,28.65
2018-02-18T02:05:53.906Z,25.33
2018-02-18T02:06:27.588Z,20.60
2018-02-18T02:07:01.264Z,24.37
2018-02-18T02:07:34.936Z,19.40
2018-02-18T02:08:09.056Z,21.95
2018-02-18T02:08:43.803Z,26.95
2018-02-18T02:09:17.507Z,23.67
2018-02-18T02:09:51.194Z,23.77
2018-02-18T02:10:24.870Z,22.73
2018-02-18T02:10:58.383Z,26.42
2018-02-18T02:11:32.058Z,22.58
2018-02-18T02:12:05.416Z,22.75
2018-02-18T02:12:39.104Z,24.25
2018-02-18T02:13:12.786Z,26.70
2018-02-18T02:13:46.765Z,21.05
2018-02-18T02:14:21.979Z,19.30
2018-02-18T02:14:56.422Z,20.73
2018-02-18T02:15:30.126Z,25.60
2018-02-18T02:16:03.813Z,22.20
2018-02-18T02:16:37.523Z,22.27
2018-02-18T02:17:11.214Z,22.00
2018-02-18T02:17:44.968Z,27.33
2018-02-18T02:18:18.638Z,26.45
2018-02-18T02:18:53.108Z,19.75
2018-02-18T02:19:26.811Z,25.15
2018-02-18T02:20:00.579Z,23.80
2018-02-18T02:20:34.273Z,23.65
2018-02-18T02:21:07.962Z,25.70
2018-02-18T02:21:41.655Z,23.73
2018-02-18T02:22:15.543Z,24.35
2018-02-18T02:22:49.335Z,24.25
2018-02-18T02:23:23.029Z,28.27
2018-02-18T02:23:56.366Z,21.70
2018-02-18T02:24:30.081Z,22.40
2018-02-18T02:25:03.756Z,23.58
2018-02-18T02:25:37.541Z,20.42
2018-02-18T02:26:11.230Z,23.52
2018-02-18T02:26:46.066Z,25.70
2018-02-18T02:27:19.735Z,22.48
2018-02-18T02:27:53.425Z,23.02
2018-02-18T02:28:27.101Z,25.23
2018-02-18T02:29:01.543Z,23.60
2018-02-18T02:29:35.247Z,27.20
2018-02-18T02:30:08.939Z,21.10
2018-02-18T02:30:42.642Z,24.37
2018-02-18T02:31:16.326Z,21.87
2018-02-18T02:31:50.015Z,24.37
2018-02-18T02:32:23.702Z,23.33
2018-02-18T02:32:57.398Z,28.73
2018-02-18T02:33:31.098Z,21.08
2018-02-18T02:34:04.838Z,23.58
2018-02-18T02:34:38.429Z,20.70
2018-02-18T02:35:12.144Z,25.15
2018-02-18T02:35:46.002Z,25.95
2018-02-18T02:36:19.476Z,21.62
2018-02-18T02:36:53.162Z,19.65
2018-02-18T02:37:27.425Z,23.48
2018-02-18T02:38:01.116Z,22.23
2018-02-18T02:38:34.972Z,25.45
2018-02-18T02:39:08.780Z,23.20
2018-02-18T02:39:42.486Z,23.30
2018-02-18T02:40:16.239Z,23.27
2018-02-18T02:40:49.928Z,22.40
2018-02-18T02:41:23.606Z,19.23
2018-02-18T02:41:58.875Z,23.85
2018-02-18T02:42:32.719Z,23.70
2018-02-18T02:43:07.153Z,27.33
2018-02-18T02:43:40.837Z,26.12
2018-02-18T02:44:14.526Z,21.83
2018-02-18T02:44:48.454Z,18.08
2018-02-18T02:45:22.134Z,24.87
2018-02-18T02:45:55.822Z,21.98
2018-02-18T02:46:29.495Z,28.35
2018-02-18T02:47:03.408Z,23.12
2018-02-18T02:47:37.071Z,25.50
2018-02-18T02:48:10.760Z,22.25
2018-02-18T02:48:44.463Z,23.58
2018-02-18T02:49:18.140Z,26.80
2018-02-18T02:49:51.831Z,22.80
2018-02-18T02:50:25.519Z,22.37
2018-02-18T02:50:59.214Z,24.40
2018-02-18T02:51:33.161Z,20.35
2018-02-18T02:52:06.831Z,25.08
2018-02-18T02:52:40.201Z,21.40
2018-02-18T02:53:13.871Z,23.80
2018-02-18T02:53:48.536Z,22.23
2018-02-18T02:54:22.211Z,24.35
2018-02-18T02:54:56.099Z,27.37
2018-02-18T02:55:29.774Z,23.00
2018-02-18T02:56:03.439Z,23.02
2018-02-18T02:56:37.892Z,24.75
2018-02-18T02:57:11.583Z,22.92
2018-02-18T02:57:45.259Z,33.42
2018-02-18T02:58:18.976Z,29.80
2018-02-18T02:58:52.913Z,24.35
2018-02-18T02:59:27.354Z,26.23
2018-02-18T03:00:01.082Z,22.42
2018-02-18T03:00:34.765Z,20.85
2018-02-18T03:01:08.442Z,22.45
2018-02-18T03:01:42.108Z,25.90
2018-02-18T03:02:15.810Z,20.98
2018-02-18T03:02:49.500Z,25.05
2018-02-18T03:03:23.252Z,18.98
2018-02-18T03:03:56.938Z,22.52
2018-02-18T03:04:31.386Z,20.88
2018-02-18T03:05:05.106Z,22.42
2018-02-18T03:05:38.767Z,25.10
2018-02-18T03:06:12.452Z,22.15
2018-02-18T03:06:46.129Z,23.55
2018-02-18T03:07:19.794Z,24.17
2018-02-18T03:07:54.257Z,30.52
2018-02-18T03:08:27.963Z,23.20
2018-02-18T03:09:01.314Z,22.77
2018-02-18T03:09:34.994Z,22.50
2018-02-18T03:10:08.708Z,22.98
2018-02-18T03:10:42.399Z,21.02
2018-02-18T03:11:16.088Z,26.87
2018-02-18T03:11:49.767Z,27.02
2018-02-18T03:12:23.440Z,25.37
2018-02-18T03:12:57.125Z,25.25
2018-02-18T03:13:30.792Z,20.33
2018-02-18T03:14:04.891Z,26.90
2018-02-18T03:14:39.338Z,23.35
2018-02-18T03:15:13.063Z,21.87
2018-02-18T03:15:47.523Z,22.62
2018-02-18T03:16:21.187Z,25.15
2018-02-18T03:16:56.391Z,25.50
2018-02-18T03:17:30.993Z,21.98
2018-02-18T03:18:04.672Z,20.80
2018-02-18T03:18:38.369Z,22.83
2018-02-18T03:19:12.062Z,24.63
2018-02-18T03:19:45.732Z,32.20
2018-02-18T03:20:19.811Z,26.02
2018-02-18T03:20:53.483Z,26.08
2018-02-18T03:21:27.172Z,24.65
2018-02-18T03:22:00.909Z,26.70
2018-02-18T03:22:35.382Z,25.48
2018-02-18T03:23:09.120Z,21.62
2018-02-18T03:23:42.479Z,21.02
2018-02-18T03:24:16.148Z,19.60
2018-02-18T03:24:49.941Z,23.17
2018-02-18T03:25:23.923Z,22.98
2018-02-18T03:25:57.699Z,22.60
2018-02-18T03:26:32.146Z,22.50
2018-02-18T03:27:05.817Z,26.87
2018-02-18T03:27:39.231Z,22.80
2018-02-18T03:28:12.906Z,25.67
2018-02-18T03:28:46.584Z,24.73
2018-02-18T03:29:20.259Z,23.83
2018-02-18T03:29:53.940Z,22.30
2018-02-18T03:30:28.447Z,25.98
2018-02-18T03:31:02.892Z,23.25
2018-02-18T03:31:36.573Z,27.52
2018-02-18T03:32:10.260Z,23.70
2018-02-18T03:32:43.970Z,22.87
2018-02-18T03:33:17.638Z,25.62
2018-02-18T03:33:51.314Z,27.15
2018-02-18T03:34:25.003Z,22.77
2018-02-18T03:34:59.667Z,24.95
2018-02-18T03:35:33.364Z,25.05
2018-02-18T03:36:07.054Z,25.12
2018-02-18T03:36:40.720Z,21.62
2018-02-18T03:37:14.063Z,23.52
2018-02-18T03:37:47.741Z,22.77
2018-02-18T03:38:22.200Z,23.23
2018-02-18T03:38:55.871Z,28.67
2018-02-18T03:39:29.558Z,22.50
2018-02-18T03:40:03.230Z,26.98
2018-02-18T03:40:37.226Z,20.35
2018-02-18T03:41:11.672Z,27.27
2018-02-18T03:41:45.361Z,23.00
2018-02-18T03:42:19.030Z,22.40
2018-02-18T03:42:52.703Z,23.00
2018-02-18T03:43:27.148Z,26.42
2018-02-18T03:44:00.818Z,24.60
2018-02-18T03:44:34.479Z,26.40
2018-02-18T03:45:08.931Z,22.92
2018-02-18T03:45:42.639Z,23.77
2018-02-18T03:46:16.357Z,29.45
2018-02-18T03:46:50.020Z,24.27
2018-02-18T03:47:23.693Z,26.20
2018-02-18T03:47:57.379Z,39.50
2018-02-18T03:48:31.069Z,62.75
2018-02-18T03:49:04.757Z,60.40
2018-02-18T03:49:38.448Z,77.47
2018-02-18T03:50:12.116Z,75.68
2018-02-18T03:50:45.832Z,82.95
2018-02-18T03:51:19.519Z,86.28
2018-02-18T03:51:53.212Z,99.32
2018-02-18T03:52:26.897Z,98.70
2018-02-18T03:53:00.585Z,93.40
2018-02-18T03:53:34.258Z,88.90
2018-02-18T03:54:07.932Z,98.05
2018-02-18T03:54:42.388Z,99.93
2018-02-18T03:55:16.107Z,104.03
2018-02-18T03:55:49.819Z,100.20
2018-02-18T03:56:23.510Z,103.57
2018-02-18T03:56:57.967Z,92.80
2018-02-18T03:57:31.650Z,86.18
2018-02-18T03:58:05.333Z,96.93
2018-02-18T03:58:39.038Z,100.85
2018-02-18T03:59:12.728Z,137.77
2018-02-18T03:59:46.417Z,179.57
2018-02-18T04:00:20.100Z,156.55
2018-02-18T04:00:54.087Z,131.48
2018-02-18T04:01:27.838Z,114.60
2018-02-18T04:02:02.328Z,103.78
2018-02-18T04:02:36.018Z,104.35
2018-02-18T04:03:09.706Z,94.28
2018-02-18T04:03:43.398Z,88.28
2018-02-18T04:04:17.086Z,107.45
2018-02-18T04:04:50.798Z,97.97
2018-02-18T04:05:25.247Z,95.32
2018-02-18T04:05:58.954Z,102.20
2018-02-18T04:06:32.624Z,91.40
2018-02-18T04:07:06.310Z,106.82
2018-02-18T04:07:39.983Z,101.60
2018-02-18T04:08:13.656Z,103.10
2018-02-18T04:08:48.097Z,93.05
2018-02-18T04:09:21.768Z,80.60
2018-02-18T04:09:55.439Z,65.75
2018-02-18T04:10:29.892Z,62.45
2018-02-18T04:11:03.591Z,65.78
2018-02-18T04:11:37.262Z,59.88
2018-02-18T04:12:10.936Z,66.68
2018-02-18T04:12:44.624Z,67.95
2018-02-18T04:13:18.292Z,61.72
2018-02-18T04:13:52.734Z,60.17
2018-02-18T04:14:26.410Z,66.82
2018-02-18T04:15:00.079Z,70.00
2018-02-18T04:15:34.567Z,73.30
2018-02-18T04:16:08.527Z,70.40
2018-02-18T04:16:42.206Z,89.35
2018-02-18T04:17:15.899Z,80.55
2018-02-18T04:17:49.572Z,86.68
2018-02-18T04:18:23.262Z,75.85
2018-02-18T04:18:56.939Z,80.70
2018-02-18T04:19:31.381Z,72.65
2018-02-18T04:20:05.048Z,75.53
2018-02-18T04:20:38.726Z,67.87
2018-02-18T04:21:13.261Z,63.95
2018-02-18T04:21:46.949Z,68.57
2018-02-18T04:22:20.647Z,66.37
2018-02-18T04:22:54.345Z,65.57
2018-02-18T04:23:28.017Z,72.85
2018-02-18T04:24:01.697Z,62.35
2018-02-18T04:24:35.407Z,63.22
2018-02-18T04:25:09.139Z,58.95
2018-02-18T04:25:42.829Z,66.12
2018-02-18T04:26:16.783Z,60.40
2018-02-18T04:26:50.469Z,55.50
2018-02-18T04:27:24.137Z,53.08
2018-02-18T04:27:58.575Z,55.22
2018-02-18T04:28:32.278Z,46.92
2018-02-18T04:29:05.966Z,45.58
2018-02-18T04:29:39.659Z,34.65
2018-02-18T04:30:13.348Z,38.13
2018-02-18T04:30:47.010Z,39.78
2018-02-18T04:31:20.700Z,29.08
2018-02-18T04:31:54.372Z,32.53
2018-02-18T04:32:28.047Z,38.55
2018-02-18T04:33:02.492Z,40.42
2018-02-18T04:33:36.174Z,40.85
2018-02-18T04:34:09.858Z,33.58
2018-02-18T04:34:43.525Z,42.58
2018-02-18T04:35:17.966Z,42.38
2018-02-18T04:35:51.670Z,63.70
2018-02-18T04:36:25.720Z,61.75
2018-02-18T04:37:00.208Z,60.05
2018-02-18T04:37:33.878Z,59.03
2018-02-18T04:38:07.571Z,57.85
2018-02-18T04:38:41.265Z,54.97
2018-02-18T04:39:14.606Z,52.78
2018-02-18T04:39:48.295Z,46.80
2018-02-18T04:40:21.982Z,41.60
2018-02-18T04:40:55.648Z,36.55
2018-02-18T04:41:30.122Z,37.17
2018-02-18T04:42:03.843Z,44.05
2018-02-18T04:42:38.299Z,33.45
2018-02-18T04:43:12.011Z,32.47
2018-02-18T04:43:45.685Z,32.67
2018-02-18T04:44:19.364Z,28.23
2018-02-18T04:44:53.046Z,30.85
2018-02-18T04:45:26.794Z,34.13
2018-02-18T04:46:00.472Z,27.52
2018-02-18T04:46:34.495Z,26.95
2018-02-18T04:47:08.929Z,35.35
2018-02-18T04:47:42.621Z,33.92
2018-02-18T04:48:16.304Z,36.28
2018-02-18T04:48:49.987Z,32.85
2018-02-18T04:49:23.674Z,35.47
2018-02-18T04:49:57.369Z,37.47
2018-02-18T04:50:31.040Z,36.83
2018-02-18T04:51:05.490Z,32.03
2018-02-18T04:51:39.197Z,32.17
2018-02-18T04:52:12.885Z,34.92
2018-02-18T04:52:46.569Z,35.47
2018-02-18T04:53:20.242Z,41.53
2018-02-18T04:53:53.934Z,50.05
2018-02-18T04:54:27.610Z,45.80
2018-02-18T04:55:01.292Z,43.13
2018-02-18T04:55:34.972Z,41.42
2018-02-18T04:56:09.427Z,42.00
2018-02-18T04:56:43.488Z,42.62
2018-02-18T04:57:17.178Z,44.47
2018-02-18T04:57:50.867Z,43.40
2018-02-18T04:58:24.537Z,46.92
2018-02-18T04:58:58.976Z,46.42
2018-02-18T04:59:32.665Z,48.08
2018-02-18T05:00:06.342Z,43.22
2018-02-18T05:00:40.015Z,47.85
2018-02-18T05:01:14.471Z,39.03
2018-02-18T05:01:48.193Z,38.28
2018-02-18T05:02:21.860Z,27.62
2018-02-18T05:02:55.546Z,28.73
2018-02-18T05:03:29.217Z,28.08
2018-02-18T05:04:02.898Z,32.72
2018-02-18T05:04:36.589Z,29.25
2018-02-18T05:05:10.262Z,27.37
2018-02-18T05:05:44.713Z,30.70
2018-02-18T05:06:18.414Z,37.17
2018-02-18T05:06:52.138Z,34.42
2018-02-18T05:07:26.598Z,31.77
2018-02-18T05:08:00.330Z,34.25
2018-02-18T05:08:34.019Z,41.65
2018-02-18T05:09:07.691Z,32.70
2018-02-18T05:09:41.395Z,34.25
2018-02-18T05:10:15.091Z,37.42
2018-02-18T05:10:49.563Z,37.47
2018-02-18T05:11:23.251Z,32.17
2018-02-18T05:11:56.977Z,31.37
2018-02-18T05:12:30.658Z,29.58
2018-02-18T05:13:04.327Z,24.83
2018-02-18T05:13:38.051Z,25.33
2018-02-18T05:14:12.591Z,29.25
2018-02-18T05:14:46.280Z,20.73
2018-02-18T05:15:20.000Z,22.35
2018-02-18T05:15:53.659Z,26.95
2018-02-18T05:16:27.350Z,22.58
2018-02-18T05:17:01.039Z,23.65
2018-02-18T05:17:34.731Z,25.35
2018-02-18T05:18:08.422Z,30.90
2018-02-18T05:18:42.106Z,28.67
2018-02-18T05:19:15.794Z,28.55
2018-02-18T05:19:50.241Z,25.85
2018-02-18T05:20:23.933Z,26.90
2018-02-18T05:20:57.614Z,29.67
2018-02-18T05:21:31.275Z,24.02
2018-02-18T05:22:04.995Z,28.77
2018-02-18T05:22:38.684Z,21.80
2018-02-18T05:23:12.346Z,27.27
2018-02-18T05:23:46.017Z,24.45
2018-02-18T05:24:20.470Z,21.37
2018-02-18T05:24:54.148Z,24.48
2018-02-18T05:25:27.849Z,26.40
2018-02-18T05:26:01.533Z,23.98
2018-02-18T05:26:35.207Z,26.77
2018-02-18T05:27:09.087Z,27.55
2018-02-18T05:27:43.533Z,25.77
2018-02-18T05:28:17.240Z,22.73
2018-02-18T05:28:50.729Z,22.23
2018-02-18T05:29:24.414Z,23.48
2018-02-18T05:29:58.091Z,25.25
2018-02-18T05:30:31.777Z,21.40
2018-02-18T05:31:05.467Z,19.73
2018-02-18T05:31:39.160Z,24.15
2018-02-18T05:32:12.873Z,23.35
2018-02-18T05:32:46.558Z,24.20
2018-02-18T05:33:20.250Z,22.58
2018-02-18T05:33:53.935Z,21.50
2018-02-18T05:34:27.605Z,19.42
2018-02-18T05:35:01.299Z,20.00
2018-02-18T05:35:34.985Z,20.48
2018-02-18T05:36:08.673Z,19.98
2018-02-18T05:36:42.362Z,27.13
2018-02-18T05:37:16.068Z,21.50
2018-02-18T05:37:49.747Z,22.35
2018-02-18T05:38:23.450Z,21.90
2018-02-18T05:38:57.263Z,22.92
2018-02-18T05:39:31.007Z,20.25
2018-02-18T05:40:04.802Z,24.77
2018-02-18T05:40:38.469Z,27.00
2018-02-18T05:41:12.180Z,23.02
2018-02-18T05:41:45.880Z,24.25
2018-02-18T05:42:19.570Z,23.08
2018-02-18T05:42:53.259Z,22.77
2018-02-18T05:43:26.999Z,25.17
2018-02-18T05:44:01.475Z,22.73
2018-02-18T05:44:35.165Z,26.85
2018-02-18T05:45:08.654Z,31.48
2018-02-18T05:45:42.339Z,25.42
2018-02-18T05:46:16.039Z,21.87
2018-02-18T05:46:49.395Z,23.77
2018-02-18T05:47:23.160Z,19.23
2018-02-18T05:47:56.843Z,21.17
2018-02-18T05:48:30.521Z,18.65
2018-02-18T05:49:04.969Z,22.00
2018-02-18T05:49:38.658Z,21.73
2018-02-18T05:50:12.341Z,25.50
2018-02-18T05:50:46.042Z,21.95
2018-02-18T05:51:19.746Z,19.73
2018-02-18T05:51:53.423Z,23.52
2018-02-18T05:52:27.184Z,23.35
2018-02-18T05:53:00.926Z,20.08
2018-02-18T05:53:34.599Z,21.37
2018-02-18T05:54:08.299Z,21.08
2018-02-18T05:54:41.991Z,22.40
2018-02-18T05:55:15.662Z,16.87
2018-02-18T05:55:49.342Z,23.30
2018-02-18T05:56:22.998Z,25.25
2018-02-18T05:56:57.462Z,20.25
2018-02-18T05:57:31.166Z,20.05
2018-02-18T05:58:04.908Z,20.92
2018-02-18T05:58:38.603Z,20.20
2018-02-18T05:59:12.283Z,23.60
2018-02-18T05:59:46.732Z,25.35
2018-02-18T06:00:20.406Z,20.20
2018-02-18T06:00:54.095Z,22.52
2018-02-18T06:01:27.774Z,21.95
2018-02-18T06:02:01.443Z,16.42
2018-02-18T06:02:35.155Z,20.15
2018-02-18T06:03:08.847Z,19.55
2018-02-18T06:03:42.523Z,19.62
2018-02-18T06:04:16.209Z,18.60
2018-02-18T06:04:49.881Z,27.05
2018-02-18T06:05:24.345Z,22.65
2018-02-18T06:05:58.042Z,20.85
2018-02-18T06:06:31.718Z,19.37
2018-02-18T06:07:05.417Z,19.85
2018-02-18T06:07:39.110Z,20.17
2018-02-18T06:08:12.809Z,22.10
2018-02-18T06:08:46.501Z,18.48
2018-02-18T06:09:20.178Z,20.70
2018-02-18T06:09:53.886Z,18.73
2018-02-18T06:10:27.761Z,20.17
2018-02-18T06:11:01.448Z,22.33
2018-02-18T06:11:35.143Z,19.20
2018-02-18T06:12:08.824Z,18.52
2018-02-18T06:12:42.536Z,17.87
2018-02-18T06:13:16.238Z,20.90
2018-02-18T06:13:49.920Z,20.17
2018-02-18T06:14:23.618Z,22.35
2018-02-18T06:14:57.314Z,21.23
2018-02-18T06:15:31.759Z,18.90
2018-02-18T06:16:05.453Z,21.62
2018-02-18T06:16:39.127Z,21.23
2018-02-18T06:17:12.814Z,19.05
2018-02-18T06:17:46.527Z,22.85
2018-02-18T06:18:20.195Z,27.70
2018-02-18T06:18:53.872Z,24.35
2018-02-18T06:19:28.313Z,19.95
2018-02-18T06:20:01.990Z,17.23
2018-02-18T06:20:35.674Z,20.80
2018-02-18T06:21:10.167Z,24.63
2018-02-18T06:21:44.606Z,19.45
2018-02-18T06:22:18.291Z,17.30
2018-02-18T06:22:52.002Z,19.00
2018-02-18T06:23:25.702Z,20.42
2018-02-18T06:23:59.387Z,20.90
2018-02-18T06:24:33.062Z,24.10
2018-02-18T06:25:06.772Z,18.95
2018-02-18T06:25:40.452Z,16.23
2018-02-18T06:26:14.143Z,19.80
2018-02-18T06:26:47.836Z,23.35
2018-02-18T06:27:21.526Z,20.95
2018-02-18T06:27:55.566Z,17.02
2018-02-18T06:28:30.029Z,18.60
2018-02-18T06:29:03.714Z,16.98
2018-02-18T06:29:37.408Z,23.48
2018-02-18T06:30:11.100Z,17.25
2018-02-18T06:30:44.809Z,17.75
2018-02-18T06:31:18.500Z,17.20
2018-02-18T06:31:52.191Z,19.25
2018-02-18T06:32:25.872Z,21.37
2018-02-18T06:32:59.914Z,17.98
2018-02-18T06:33:33.607Z,20.10
2018-02-18T06:34:07.299Z,20.83
2018-02-18T06:34:40.983Z,21.08
2018-02-18T06:35:15.624Z,22.20
2018-02-18T06:35:49.298Z,20.00
2018-02-18T06:36:22.990Z,19.30
2018-02-18T06:36:56.662Z,16.92
2018-02-18T06:37:31.104Z,22.95
2018-02-18T06:38:04.821Z,21.20
2018-02-18T06:38:38.483Z,27.40
2018-02-18T06:39:12.166Z,20.20
2018-02-18T06:39:45.838Z,24.65
2018-02-18T06:40:19.521Z,17.12
2018-02-18T06:40:53.186Z,20.05
2018-02-18T06:41:26.868Z,19.00
2018-02-18T06:42:00.217Z,24.23
2018-02-18T06:42:33.886Z,21.42
2018-02-18T06:43:07.595Z,19.55
2018-02-18T06:43:41.286Z,22.45
2018-02-18T06:44:14.963Z,22.62
2018-02-18T06:44:48.645Z,16.30
2018-02-18T06:45:22.325Z,17.73
2018-02-18T06:45:56.019Z,20.50
2018-02-18T06:46:29.724Z,21.20
2018-02-18T06:47:03.423Z,21.83
2018-02-18T06:47:37.136Z,17.42
2018-02-18T06:48:10.840Z,22.00
2018-02-18T06:48:44.528Z,17.83
2018-02-18T06:49:18.219Z,18.73
2018-02-18T06:49:51.909Z,18.85
2018-02-18T06:50:25.602Z,23.52
2018-02-18T06:50:59.286Z,20.67
2018-02-18T06:51:32.976Z,22.45
2018-02-18T06:52:06.648Z,18.90
2018-02-18T06:52:40.341Z,17.37
2018-02-18T06:53:14.048Z,19.80
2018-02-18T06:53:47.718Z,22.87
2018-02-18T06:54:21.400Z,20.10
2018-02-18T06:54:55.079Z,20.45
2018-02-18T06:55:28.754Z,20.52
2018-02-18T06:56:02.482Z,19.15
2018-02-18T06:56:36.171Z,21.12
2018-02-18T06:57:09.844Z,16.87
2018-02-18T06:57:43.536Z,19.15
2018-02-18T06:58:17.243Z,18.42
2018-02-18T06:58:50.925Z,19.10
2018-02-18T06:59:24.607Z,16.87
2018-02-18T06:59:58.308Z,19.52
2018-02-18T07:00:31.999Z,16.73
2018-02-18T07:01:05.667Z,19.08
2018-02-18T07:01:39.342Z,19.33
2018-02-18T07:02:13.030Z,22.15
2018-02-18T07:02:46.715Z,21.92
2018-02-18T07:03:20.446Z,22.13
2018-02-18T07:03:54.125Z,17.98
2018-02-18T07:04:27.791Z,17.73
2018-02-18T07:05:01.483Z,23.25
2018-02-18T07:05:35.160Z,26.80
2018-02-18T07:06:08.854Z,20.62
2018-02-18T07:06:42.546Z,15.95
2018-02-18T07:07:16.234Z,19.80
2018-02-18T07:07:49.951Z,19.62
2018-02-18T07:08:23.658Z,20.52
2018-02-18T07:08:57.348Z,17.75
2018-02-18T07:09:31.037Z,17.58
2018-02-18T07:10:04.715Z,23.15
2018-02-18T07:10:38.407Z,20.42
2018-02-18T07:11:12.121Z,20.08
2018-02-18T07:11:45.807Z,20.27
2018-02-18T07:12:19.497Z,21.95
2018-02-18T07:12:54.671Z,23.17
2018-02-18T07:13:28.392Z,19.05
2018-02-18T07:14:02.072Z,24.45
2018-02-18T07:14:35.742Z,26.45
2018-02-18T07:15:09.424Z,20.35